Time;durP1;ratioP1;P1;durP2;ratioP2;P2;SDS_P1;SDS_P2;PMS_P1;PMS_P2;Temp;Humidity;BMP_temperature;BMP_pressure;BME280_temperature;BME280_humidity;BME280_pressure;Samples;Min_cycle;Max_cycle;Signal;HPM_P1;HPM_P2
2024/03/24 00:01:50;;;;;;;1.60;0.73;;;4.10;96.80;;;;;;5061513;28;20573;-80
2024/03/24 00:04:16;;;;;;;2.07;1.10;;;4.00;96.90;;;;;;5071835;28;20209;-80
2024/03/24 00:06:42;;;;;;;1.17;1.00;;;4.00;96.90;;;;;;5072948;28;20193;-80
2024/03/24 00:09:09;;;;;;;1.13;1.00;;;4.10;96.90;;;;;;5064428;28;20193;-80
2024/03/24 00:11:35;;;;;;;1.10;1.03;;;4.00;97.10;;;;;;5070047;28;20197;-82
2024/03/24 00:14:02;;;;;;;3.00;1.17;;;4.10;97.30;;;;;;5071344;28;20206;-81
2024/03/24 00:16:30;;;;;;;2.47;1.00;;;4.00;96.50;;;;;;5072121;28;20207;-80
2024/03/24 00:18:56;;;;;;;2.10;1.03;;;4.00;97.50;;;;;;5065168;28;20602;-83
2024/03/24 00:21:23;;;;;;;1.50;1.00;;;3.90;97.20;;;;;;5066647;28;20661;-81
2024/03/24 00:23:49;;;;;;;1.07;0.83;;;3.90;97.00;;;;;;5068602;28;20225;-81
2024/03/24 00:26:16;;;;;;;3.53;1.10;;;4.10;96.90;;;;;;5072418;28;20676;-80
2024/03/24 00:28:41;;;;;;;2.57;0.97;;;4.30;96.80;;;;;;5071030;28;20204;-80
2024/03/24 00:31:08;;;;;;;1.23;1.10;;;4.30;96.10;;;;;;5075177;28;20193;-81
2024/03/24 00:33:35;;;;;;;3.20;1.17;;;4.30;96.30;;;;;;5068110;28;20193;-82
2024/03/24 00:36:02;;;;;;;2.57;1.07;;;4.30;96.90;;;;;;5066149;28;20250;-81
2024/03/24 00:38:28;;;;;;;1.50;1.00;;;4.30;96.20;;;;;;5072276;28;20193;-80
2024/03/24 00:40:55;;;;;;;2.07;1.07;;;4.40;96.10;;;;;;5073624;28;20189;-80
2024/03/24 00:43:21;;;;;;;2.03;1.00;;;4.40;96.20;;;;;;5063105;28;20233;-80
2024/03/24 00:45:49;;;;;;;1.17;1.07;;;4.30;96.40;;;;;;5067656;28;20201;-80
2024/03/24 00:48:15;;;;;;;1.90;1.13;;;4.20;96.30;;;;;;5064968;28;20224;-82
2024/03/24 00:50:44;;;;;;;1.20;1.00;;;4.10;96.60;;;;;;5066173;28;20606;-81
2024/03/24 00:53:10;;;;;;;1.80;1.03;;;4.30;97.40;;;;;;5065183;28;20209;-80
2024/03/24 00:55:36;;;;;;;1.93;1.23;;;4.20;96.80;;;;;;5070614;28;20212;-80
2024/03/24 00:58:02;;;;;;;2.97;1.30;;;4.10;96.90;;;;;;5066288;28;20204;-80
2024/03/24 01:00:30;;;;;;;1.90;0.90;;;4.20;97.20;;;;;;5066426;28;20299;-80
2024/03/24 01:02:55;;;;;;;1.47;1.00;;;4.30;96.90;;;;;;5064480;28;20216;-81
2024/03/24 01:05:22;;;;;;;1.70;1.10;;;4.40;96.80;;;;;;5068673;28;20189;-80
2024/03/24 01:07:50;;;;;;;1.40;1.10;;;4.50;96.70;;;;;;5067918;28;20213;-80
2024/03/24 01:10:17;;;;;;;1.20;1.10;;;4.30;96.40;;;;;;5062397;28;20287;-80
2024/03/24 01:12:43;;;;;;;3.97;1.10;;;4.20;96.80;;;;;;5055561;28;20194;-80
2024/03/24 01:15:11;;;;;;;3.80;1.10;;;4.20;97.10;;;;;;5065862;28;20216;-80
2024/03/24 01:17:36;;;;;;;1.20;1.00;;;4.40;97.60;;;;;;5063169;28;20547;-80
2024/03/24 01:20:04;;;;;;;1.50;1.20;;;4.30;96.60;;;;;;5069093;28;20200;-80
2024/03/24 01:22:29;;;;;;;3.57;1.10;;;4.10;96.80;;;;;;5061515;28;20244;-80
2024/03/24 01:24:58;;;;;;;2.53;1.37;;;4.10;97.50;;;;;;5065877;28;23159;-80
2024/03/24 01:27:24;;;;;;;1.13;1.03;;;4.00;97.50;;;;;;5068125;28;20305;-80
2024/03/24 01:29:51;;;;;;;2.20;1.13;;;3.90;98.10;;;;;;5066618;28;20723;-83
2024/03/24 01:32:16;;;;;;;1.93;1.10;;;3.90;98.20;;;;;;5066318;28;20205;-85
2024/03/24 01:34:43;;;;;;;1.60;0.80;;;4.00;97.80;;;;;;5073426;28;20201;-80
2024/03/24 01:37:09;;;;;;;2.20;1.10;;;4.00;97.70;;;;;;5057481;28;20786;-80
2024/03/24 01:39:36;;;;;;;2.53;1.00;;;4.00;97.60;;;;;;5067105;28;20197;-80
2024/03/24 01:42:03;;;;;;;1.70;0.90;;;4.20;97.80;;;;;;5063646;28;20570;-81
2024/03/24 01:44:31;;;;;;;1.13;0.90;;;4.20;97.30;;;;;;5066467;28;20221;-80
2024/03/24 01:46:57;;;;;;;1.93;1.10;;;4.20;97.30;;;;;;5065181;28;20205;-81
2024/03/24 01:49:24;;;;;;;1.40;0.93;;;4.20;96.70;;;;;;5069742;28;20197;-81
2024/03/24 01:51:50;;;;;;;1.70;0.93;;;4.30;96.70;;;;;;5064291;28;20192;-82
2024/03/24 01:54:17;;;;;;;0.80;0.80;;;4.30;96.60;;;;;;5067595;28;20207;-82
2024/03/24 01:56:44;;;;;;;0.87;0.70;;;4.30;96.60;;;;;;5065035;28;20205;-82
2024/03/24 01:59:13;;;;;;;1.90;1.00;;;4.40;96.70;;;;;;5066492;28;20193;-85
2024/03/24 02:01:39;;;;;;;1.33;0.73;;;4.40;96.60;;;;;;5066640;28;20205;-83
2024/03/24 02:04:10;;;;;;;1.13;1.03;;;4.30;96.90;;;;;;5067425;28;20217;-82
2024/03/24 02:06:36;;;;;;;1.40;1.30;;;4.20;96.90;;;;;;5063550;28;20201;-82
2024/03/24 02:09:03;;;;;;;2.20;1.10;;;4.30;97.80;;;;;;5067735;28;20209;-82
2024/03/24 02:11:29;;;;;;;0.80;0.80;;;4.40;97.30;;;;;;5068670;28;20674;-82
2024/03/24 02:13:59;;;;;;;0.87;0.73;;;4.30;97.30;;;;;;5064124;28;20205;-82
2024/03/24 02:16:27;;;;;;;1.27;0.73;;;4.30;97.30;;;;;;5061696;28;20659;-86
2024/03/24 02:18:54;;;;;;;2.43;1.03;;;4.10;97.50;;;;;;5072480;28;20235;-82
2024/03/24 02:21:20;;;;;;;1.37;1.00;;;4.00;98.20;;;;;;5067167;28;20211;-82
2024/03/24 02:23:49;;;;;;;3.30;2.50;;;4.00;98.90;;;;;;5058061;28;20225;-82
2024/03/24 02:26:15;;;;;;;1.27;0.67;;;4.00;98.80;;;;;;5069891;28;20201;-82
2024/03/24 02:28:42;;;;;;;1.20;1.03;;;3.90;99.20;;;;;;5064590;28;20190;-82
2024/03/24 02:31:07;;;;;;;0.80;0.80;;;3.90;99.90;;;;;;5061759;28;20563;-82
2024/03/24 02:33:34;;;;;;;1.43;0.93;;;3.80;99.70;;;;;;5072551;28;20201;-82
2024/03/24 02:36:00;;;;;;;1.33;0.70;;;3.70;99.90;;;;;;5062282;28;20204;-80
2024/03/24 02:38:27;;;;;;;1.13;1.03;;;3.70;99.90;;;;;;5068363;28;20189;-82
2024/03/24 02:40:54;;;;;;;0.77;0.77;;;3.60;99.90;;;;;;5056868;28;20194;-82
2024/03/24 02:43:21;;;;;;;2.03;1.00;;;3.70;99.90;;;;;;5067766;28;20922;-82
2024/03/24 02:45:55;;;;;;;1.40;0.80;;;3.80;99.90;;;;;;5064000;28;20557;-82
2024/03/24 02:48:22;;;;;;;1.33;0.73;;;4.10;99.90;;;;;;5077108;28;20238;-81
2024/03/24 02:50:47;;;;;;;0.87;0.70;;;4.10;99.90;;;;;;5064656;28;20223;-81
2024/03/24 02:53:15;;;;;;;2.40;1.13;;;4.00;99.00;;;;;;5061301;28;20737;-81
2024/03/24 02:55:46;;;;;;;0.53;0.53;;;4.00;99.60;;;;;;5071155;28;20678;-81
2024/03/24 02:58:14;;;;;;;1.13;0.80;;;3.80;99.90;;;;;;5067546;28;20608;-81
2024/03/24 03:00:41;;;;;;;1.30;0.83;;;3.70;99.90;;;;;;5074420;28;20288;-81
2024/03/24 03:03:07;;;;;;;0.93;0.73;;;3.80;99.90;;;;;;5071699;28;20225;-81
2024/03/24 03:05:34;;;;;;;1.33;0.90;;;3.80;99.90;;;;;;5069547;28;20193;-81
2024/03/24 03:08:02;;;;;;;2.00;0.80;;;3.80;99.90;;;;;;5063799;28;20662;-81
2024/03/24 03:10:30;;;;;;;0.97;0.87;;;3.80;99.90;;;;;;5067390;28;20200;-81
2024/03/24 03:12:56;;;;;;;0.90;0.90;;;3.90;99.90;;;;;;5069000;28;20239;-82
2024/03/24 03:15:25;;;;;;;2.17;1.10;;;3.80;99.90;;;;;;5067408;28;20217;-81
2024/03/24 03:17:51;;;;;;;1.97;1.10;;;3.70;99.90;;;;;;5064877;28;20200;-81
2024/03/24 03:20:18;;;;;;;0.87;0.87;;;3.70;99.90;;;;;;5064663;28;20201;-82
2024/03/24 03:22:44;;;;;;;0.73;0.70;;;3.70;99.90;;;;;;5066332;28;20306;-81
2024/03/24 03:25:11;;;;;;;1.33;1.10;;;3.60;99.90;;;;;;5071961;28;20229;-82
2024/03/24 03:27:37;;;;;;;1.40;1.10;;;3.70;99.90;;;;;;5073397;28;20198;-81
2024/03/24 03:30:04;;;;;;;1.13;1.07;;;3.60;99.90;;;;;;5072062;28;20196;-81
2024/03/24 03:32:32;;;;;;;1.00;0.90;;;3.40;99.90;;;;;;5073008;28;20685;-81
2024/03/24 03:34:58;;;;;;;1.90;1.20;;;3.30;99.90;;;;;;5070136;28;20220;-82
2024/03/24 03:37:24;;;;;;;1.57;0.70;;;3.30;99.90;;;;;;5069893;28;20650;-81
2024/03/24 03:39:51;;;;;;;2.90;1.40;;;3.30;99.90;;;;;;5064091;28;20202;-81
2024/03/24 03:42:18;;;;;;;2.50;1.10;;;3.50;99.90;;;;;;5068832;28;20204;-81
2024/03/24 03:44:46;;;;;;;1.40;1.00;;;3.70;99.90;;;;;;5069407;28;20233;-81
2024/03/24 03:47:13;;;;;;;1.00;0.90;;;3.80;99.90;;;;;;5066190;28;20233;-81
2024/03/24 03:49:50;;;;;;;1.10;1.00;;;3.90;99.90;;;;;;5067964;28;20193;-82
2024/03/24 03:52:16;;;;;;;2.13;1.07;;;3.90;99.90;;;;;;5068248;28;20201;-81
2024/03/24 03:54:43;;;;;;;3.10;1.07;;;3.90;99.90;;;;;;5062468;28;20327;-81
2024/03/24 03:57:09;;;;;;;1.53;0.90;;;3.90;99.90;;;;;;5073809;28;20193;-81
2024/03/24 03:59:36;;;;;;;1.20;0.77;;;3.80;99.50;;;;;;5078528;28;20200;-81
2024/03/24 04:02:02;;;;;;;1.00;0.70;;;3.70;99.90;;;;;;5066393;28;20204;-82
2024/03/24 04:04:29;;;;;;;0.87;0.67;;;3.80;99.80;;;;;;5073896;28;20235;-81
2024/03/24 04:06:57;;;;;;;1.57;0.60;;;3.70;99.90;;;;;;5072902;28;20666;-84
2024/03/24 04:09:24;;;;;;;0.73;0.73;;;3.70;99.90;;;;;;5065799;28;20201;-82
2024/03/24 04:11:50;;;;;;;2.00;0.70;;;3.70;99.90;;;;;;5070999;28;20197;-81
2024/03/24 04:14:17;;;;;;;1.07;0.97;;;3.70;99.90;;;;;;5071298;28;20204;-82
2024/03/24 04:16:43;;;;;;;1.30;0.83;;;3.60;99.90;;;;;;5072821;28;20205;-81
2024/03/24 04:19:09;;;;;;;0.97;0.90;;;3.50;99.90;;;;;;5062673;28;20196;-81
2024/03/24 04:21:35;;;;;;;1.30;1.20;;;3.50;99.90;;;;;;5060712;28;20205;-81
2024/03/24 04:24:04;;;;;;;1.23;0.80;;;3.40;99.90;;;;;;5066296;28;20224;-81
2024/03/24 04:26:30;;;;;;;1.07;0.90;;;3.40;99.90;;;;;;5071063;28;20197;-82
2024/03/24 04:28:56;;;;;;;1.07;0.97;;;3.40;99.90;;;;;;5061419;28;20194;-83
2024/03/24 04:31:23;;;;;;;1.00;0.80;;;3.30;99.90;;;;;;5070172;28;20205;-81
2024/03/24 04:33:50;;;;;;;2.37;0.83;;;3.40;99.90;;;;;;5069240;28;20202;-82
2024/03/24 04:36:16;;;;;;;0.93;0.80;;;3.40;99.90;;;;;;5071251;28;20201;-82
2024/03/24 04:38:43;;;;;;;1.97;0.90;;;3.40;99.90;;;;;;5070432;28;20703;-82
2024/03/24 04:41:11;;;;;;;0.80;0.80;;;3.40;99.90;;;;;;5071574;28;20189;-81
2024/03/24 04:43:38;;;;;;;1.47;0.83;;;3.50;99.90;;;;;;5071225;28;20225;-81
2024/03/24 04:46:05;;;;;;;1.00;0.90;;;3.40;99.90;;;;;;5073704;28;20278;-81
2024/03/24 04:48:32;;;;;;;2.73;1.00;;;3.40;99.90;;;;;;5068690;28;20204;-81
2024/03/24 04:50:58;;;;;;;1.27;0.80;;;3.40;99.90;;;;;;5065647;28;20205;-81
2024/03/24 04:53:26;;;;;;;0.67;0.67;;;3.40;99.90;;;;;;5065774;28;20362;-81
2024/03/24 04:55:51;;;;;;;1.10;0.87;;;3.40;99.90;;;;;;5063259;28;20204;-81
2024/03/24 04:58:20;;;;;;;0.77;0.77;;;3.40;99.90;;;;;;5069294;28;20197;-81
2024/03/24 05:00:47;;;;;;;1.00;1.00;;;3.50;99.90;;;;;;5064948;28;20908;-83
2024/03/24 05:03:13;;;;;;;1.00;0.90;;;3.60;99.90;;;;;;5068482;28;20221;-81
2024/03/24 05:05:45;;;;;;;1.13;0.80;;;3.60;99.90;;;;;;5066187;28;20212;-82
2024/03/24 05:08:14;;;;;;;1.40;0.80;;;3.60;99.90;;;;;;5060438;28;20209;-81
2024/03/24 05:10:41;;;;;;;1.03;0.97;;;3.60;99.90;;;;;;5064353;28;20198;-81
2024/03/24 05:13:08;;;;;;;1.53;1.03;;;3.60;99.90;;;;;;5064056;28;20290;-82
2024/03/24 05:15:37;;;;;;;0.80;0.80;;;3.50;99.90;;;;;;5068182;28;20209;-81
2024/03/24 05:18:05;;;;;;;1.83;0.90;;;3.50;99.90;;;;;;5067098;28;20204;-82
2024/03/24 05:20:35;;;;;;;0.67;0.67;;;3.60;99.90;;;;;;5061959;28;20193;-82
2024/03/24 05:23:00;;;;;;;0.63;0.63;;;3.70;99.90;;;;;;5070413;28;20193;-82
2024/03/24 05:25:27;;;;;;;1.93;0.90;;;3.80;99.90;;;;;;5067919;28;21353;-82
2024/03/24 05:27:53;;;;;;;1.27;0.80;;;3.70;99.60;;;;;;5066367;28;20200;-81
2024/03/24 05:30:20;;;;;;;0.80;0.80;;;3.70;99.50;;;;;;5070046;28;20197;-82
2024/03/24 05:32:47;;;;;;;0.80;0.80;;;3.50;99.90;;;;;;5068479;28;20204;-81
2024/03/24 05:35:15;;;;;;;1.07;0.90;;;3.40;99.90;;;;;;5065469;28;20201;-81
2024/03/24 05:37:40;;;;;;;2.60;1.07;;;3.30;99.90;;;;;;5062579;28;20201;-82
2024/03/24 05:40:09;;;;;;;1.70;0.87;;;3.30;99.90;;;;;;5065500;28;20676;-82
2024/03/24 05:42:36;;;;;;;1.10;1.00;;;3.40;99.90;;;;;;5065307;28;20247;-81
2024/03/24 05:45:04;;;;;;;1.00;1.00;;;3.30;99.90;;;;;;5068661;28;20221;-81
2024/03/24 05:47:30;;;;;;;1.10;1.00;;;3.40;99.90;;;;;;5062664;28;20225;-81
2024/03/24 05:49:58;;;;;;;1.07;0.90;;;3.40;99.90;;;;;;5067113;28;20335;-81
2024/03/24 05:52:24;;;;;;;1.83;1.07;;;3.30;99.90;;;;;;5068200;28;20200;-82
2024/03/24 05:54:51;;;;;;;0.80;0.80;;;3.30;99.90;;;;;;5076770;28;20205;-83
2024/03/24 05:57:16;;;;;;;1.07;0.90;;;3.30;99.90;;;;;;5070744;28;20207;-81
2024/03/24 05:59:43;;;;;;;1.83;1.00;;;3.30;99.90;;;;;;5064819;28;20194;-81
2024/03/24 06:02:09;;;;;;;1.23;0.80;;;3.30;99.90;;;;;;5061074;28;20190;-81
2024/03/24 06:04:36;;;;;;;1.37;0.90;;;3.40;99.90;;;;;;5066655;28;20277;-82
2024/03/24 06:07:07;;;;;;;1.47;0.90;;;3.40;99.90;;;;;;5066383;28;20209;-81
2024/03/24 06:09:36;;;;;;;1.13;0.93;;;3.60;99.90;;;;;;5069978;28;20286;-82
2024/03/24 06:12:03;;;;;;;0.60;0.60;;;3.60;99.90;;;;;;5068225;28;20208;-81
2024/03/24 06:14:30;;;;;;;0.80;0.80;;;3.80;99.90;;;;;;5068423;28;20207;-81
2024/03/24 06:16:55;;;;;;;1.73;0.97;;;3.90;98.80;;;;;;5066057;28;20204;-82
2024/03/24 06:19:22;;;;;;;1.33;0.70;;;3.90;98.80;;;;;;5067975;28;20201;-82
2024/03/24 06:21:49;;;;;;;1.10;0.80;;;4.00;98.60;;;;;;5073042;28;20204;-81
2024/03/24 06:24:18;;;;;;;1.13;0.80;;;4.10;98.30;;;;;;5058742;28;20221;-81
2024/03/24 06:26:44;;;;;;;1.07;1.07;;;4.20;98.00;;;;;;5054736;28;20213;-81
2024/03/24 06:29:11;;;;;;;0.80;0.80;;;4.30;97.60;;;;;;5070357;28;20205;-82
2024/03/24 06:31:37;;;;;;;0.80;0.80;;;4.40;98.00;;;;;;5068394;28;20193;-85
2024/03/24 06:34:04;;;;;;;1.07;1.00;;;4.40;98.00;;;;;;5076212;28;20204;-80
2024/03/24 06:36:29;;;;;;;1.30;1.13;;;4.30;97.40;;;;;;5066827;28;20585;-81
2024/03/24 06:38:56;;;;;;;1.07;1.00;;;4.30;98.10;;;;;;5069443;28;20201;-83
2024/03/24 06:41:24;;;;;;;1.37;1.20;;;4.30;97.50;;;;;;5067641;28;20193;-81
2024/03/24 06:43:50;;;;;;;0.80;0.80;;;4.40;97.70;;;;;;5065927;28;20224;-85
2024/03/24 06:46:16;;;;;;;0.90;0.90;;;4.50;97.40;;;;;;5063984;28;20223;-81
2024/03/24 06:48:43;;;;;;;1.27;0.90;;;4.60;97.60;;;;;;5064693;28;20205;-82
2024/03/24 06:51:09;;;;;;;1.30;1.20;;;4.70;96.70;;;;;;5066618;28;20205;-82
2024/03/24 06:53:36;;;;;;;0.90;0.90;;;4.70;97.00;;;;;;5061899;28;20209;-81
2024/03/24 06:56:02;;;;;;;1.60;1.00;;;4.70;97.30;;;;;;5069854;28;20204;-81
2024/03/24 06:58:30;;;;;;;0.90;0.90;;;4.80;97.30;;;;;;5063470;28;20212;-82
2024/03/24 07:00:56;;;;;;;1.10;1.00;;;5.00;97.30;;;;;;5066892;28;20204;-83
2024/03/24 07:03:23;;;;;;;1.33;0.87;;;5.20;96.30;;;;;;5069969;28;20201;-82
2024/03/24 07:05:49;;;;;;;0.97;0.97;;;5.70;95.70;;;;;;5059990;28;20194;-81
2024/03/24 07:08:16;;;;;;;1.13;1.00;;;5.90;94.20;;;;;;5060982;28;20202;-81
2024/03/24 07:10:41;;;;;;;0.90;0.75;;;6.00;94.10;;;;;;5067324;28;20204;-83
2024/03/24 07:13:08;;;;;;;1.25;0.93;;;6.20;93.70;;;;;;5062939;28;20220;-83
2024/03/24 07:15:35;;;;;;;1.10;1.08;;;6.20;93.20;;;;;;5063113;28;20205;-82
2024/03/24 07:18:02;;;;;;;1.02;0.93;;;6.30;93.00;;;;;;5058283;28;20202;-81
2024/03/24 07:20:28;;;;;;;1.38;0.93;;;6.40;92.50;;;;;;5066309;28;20205;-84
2024/03/24 07:22:55;;;;;;;0.98;0.85;;;6.80;92.50;;;;;;5075407;28;20201;-84
2024/03/24 07:25:21;;;;;;;1.25;1.08;;;7.20;90.80;;;;;;5063322;28;20308;-87
2024/03/24 07:27:48;;;;;;;0.70;0.70;;;7.30;90.00;;;;;;5069453;28;20280;-84
2024/03/24 07:30:14;;;;;;;0.80;0.80;;;7.10;89.50;;;;;;5065929;28;20201;-87
2024/03/24 07:32:43;;;;;;;2.15;1.00;;;6.80;90.00;;;;;;5063800;28;20202;-84
2024/03/24 07:35:08;;;;;;;0.95;0.75;;;6.70;91.10;;;;;;5063334;28;20280;-84
2024/03/24 07:37:35;;;;;;;1.02;0.88;;;6.60;91.20;;;;;;5071966;28;20614;-84
2024/03/24 07:40:01;;;;;;;29.95;16.48;;;6.90;90.00;;;;;;5072012;28;20200;-84
2024/03/24 07:42:28;;;;;;;1.15;0.98;;;7.00;90.10;;;;;;5073320;28;20202;-84
2024/03/24 07:44:53;;;;;;;1.25;0.95;;;6.90;89.20;;;;;;5076953;28;20228;-84
2024/03/24 07:47:24;;;;;;;1.48;1.33;;;6.90;90.00;;;;;;5075128;28;20212;-84
2024/03/24 07:49:52;;;;;;;3.70;2.55;;;7.00;87.90;;;;;;5075664;28;20211;-84
2024/03/24 07:52:19;;;;;;;3.35;0.90;;;7.00;88.50;;;;;;5069887;28;20201;-85
2024/03/24 07:54:45;;;;;;;0.93;0.88;;;6.90;87.80;;;;;;5071180;28;20201;-84
2024/03/24 07:57:11;;;;;;;2.05;1.05;;;6.80;88.00;;;;;;5073355;28;20656;-84
2024/03/24 07:59:37;;;;;;;0.60;0.60;;;6.70;87.90;;;;;;5071846;28;20194;-84
2024/03/24 08:02:04;;;;;;;1.10;1.00;;;6.70;89.60;;;;;;5070665;28;20205;-83
2024/03/24 08:04:30;;;;;;;0.73;0.73;;;6.70;90.00;;;;;;5069222;28;20575;-84
2024/03/24 08:06:58;;;;;;;1.20;0.90;;;6.50;90.30;;;;;;5072011;28;20198;-83
2024/03/24 08:09:24;;;;;;;0.90;0.90;;;6.40;90.80;;;;;;5066514;28;20201;-84
2024/03/24 08:11:51;;;;;;;1.88;0.80;;;6.30;90.60;;;;;;5069093;28;20193;-82
2024/03/24 08:14:16;;;;;;;0.80;0.80;;;6.30;89.80;;;;;;5062089;28;20194;-83
2024/03/24 08:16:43;;;;;;;1.10;0.93;;;6.10;90.40;;;;;;5068814;28;20220;-83
2024/03/24 08:19:09;;;;;;;1.13;1.03;;;6.00;91.30;;;;;;5066881;28;20582;-83
2024/03/24 08:21:36;;;;;;;1.38;1.17;;;5.90;92.00;;;;;;5070447;28;20194;-82
2024/03/24 08:24:03;;;;;;;1.08;0.90;;;5.70;92.50;;;;;;5070683;28;20431;-81
2024/03/24 08:26:30;;;;;;;1.17;1.07;;;5.50;93.80;;;;;;5069897;28;20224;-81
2024/03/24 08:28:56;;;;;;;1.30;1.20;;;5.30;94.30;;;;;;5068999;28;20217;-82
2024/03/24 08:31:24;;;;;;;0.90;0.90;;;5.00;95.10;;;;;;5069779;28;20204;-82
2024/03/24 08:33:50;;;;;;;1.20;1.00;;;4.60;95.20;;;;;;5068762;28;20201;-80
2024/03/24 08:36:17;;;;;;;0.70;0.70;;;4.30;95.90;;;;;;5070137;28;20197;-79
2024/03/24 08:38:46;;;;;;;0.87;0.87;;;4.00;96.70;;;;;;5065461;28;20197;-79
2024/03/24 08:41:14;;;;;;;1.93;1.00;;;3.70;97.70;;;;;;5078917;28;20192;-79
2024/03/24 08:43:40;;;;;;;0.90;0.90;;;3.50;98.10;;;;;;5069305;28;20304;-80
2024/03/24 08:46:07;;;;;;;0.90;0.80;;;3.40;99.30;;;;;;5067034;28;20276;-80
2024/03/24 08:48:33;;;;;;;1.30;0.80;;;3.40;99.90;;;;;;5072485;28;20661;-80
2024/03/24 08:50:59;;;;;;;0.70;0.70;;;3.40;99.90;;;;;;5072202;28;20197;-84
2024/03/24 08:53:25;;;;;;;1.23;1.00;;;3.50;99.90;;;;;;5065981;28;20514;-81
2024/03/24 08:55:52;;;;;;;0.87;0.87;;;3.60;99.90;;;;;;5075724;28;20204;-80
2024/03/24 08:58:19;;;;;;;0.77;0.77;;;3.70;99.90;;;;;;5069597;28;20689;-80
2024/03/24 09:00:52;;;;;;;0.90;0.90;;;3.70;99.90;;;;;;5066160;28;20196;-81
2024/03/24 09:03:17;;;;;;;0.70;0.70;;;3.70;99.90;;;;;;5066740;28;20205;-80
2024/03/24 09:05:44;;;;;;;0.83;0.83;;;3.70;99.90;;;;;;5073487;28;20217;-79
2024/03/24 09:08:10;;;;;;;1.00;0.90;;;3.80;99.90;;;;;;5065558;28;20209;-80
2024/03/24 09:10:37;;;;;;;1.73;1.00;;;3.70;99.90;;;;;;5071023;28;20259;-80
2024/03/24 09:13:04;;;;;;;1.43;0.90;;;3.60;99.90;;;;;;5067542;28;20221;-80
2024/03/24 09:15:32;;;;;;;1.37;1.10;;;3.60;99.90;;;;;;5068261;28;20266;-81
2024/03/24 09:17:58;;;;;;;0.87;0.70;;;3.70;99.90;;;;;;5067781;28;20197;-80
2024/03/24 09:20:24;;;;;;;1.20;1.10;;;3.80;99.90;;;;;;5072220;28;20212;-82
2024/03/24 09:22:51;;;;;;;1.10;1.03;;;3.80;99.90;;;;;;5070616;28;20649;-81
2024/03/24 09:25:17;;;;;;;1.20;1.10;;;3.80;99.90;;;;;;5069634;28;20267;-82
2024/03/24 09:27:45;;;;;;;0.90;0.90;;;3.80;99.90;;;;;;5073104;28;20198;-82
2024/03/24 09:30:14;;;;;;;0.90;0.90;;;3.70;99.90;;;;;;5066970;28;20251;-81
2024/03/24 09:32:41;;;;;;;1.10;1.00;;;3.50;99.90;;;;;;5063338;28;20189;-81
2024/03/24 09:35:09;;;;;;;1.47;1.37;;;3.50;99.90;;;;;;5067731;28;20657;-81
2024/03/24 09:37:35;;;;;;;1.10;1.00;;;3.60;99.90;;;;;;5067071;28;20279;-81
2024/03/24 09:40:02;;;;;;;1.30;1.10;;;3.70;99.90;;;;;;5068976;28;20760;-81
2024/03/24 09:42:28;;;;;;;1.10;1.00;;;3.90;99.90;;;;;;5070308;28;20580;-81
2024/03/24 09:44:58;;;;;;;1.40;1.30;;;4.80;99.90;;;;;;5072096;28;20234;-84
2024/03/24 09:47:25;;;;;;;0.98;0.80;;;6.40;98.50;;;;;;5069403;28;20235;-84
2024/03/24 09:49:56;;;;;;;1.00;1.00;;;7.70;94.70;;;;;;5070743;28;20200;-86
2024/03/24 09:52:23;;;;;;;1.00;0.93;;;8.20;90.80;;;;;;5070122;28;20238;-84
2024/03/24 09:54:50;;;;;;;0.90;0.90;;;9.00;85.90;;;;;;5068320;28;20193;-83
2024/03/24 09:57:17;;;;;;;0.80;0.80;;;9.30;71.00;;;;;;5068967;28;20202;-84
2024/03/24 09:59:48;;;;;;;1.02;1.00;;;9.00;75.20;;;;;;5067503;28;20221;-84
2024/03/24 10:02:14;;;;;;;1.42;0.80;;;9.50;74.40;;;;;;5063249;28;20229;-84
2024/03/24 10:04:41;;;;;;;0.75;0.70;;;9.90;72.90;;;;;;5067778;28;20226;-84
2024/03/24 10:07:09;;;;;;;1.30;1.20;;;10.50;68.00;;;;;;5062355;28;20221;-84
2024/03/24 10:09:36;;;;;;;1.25;0.80;;;11.10;61.50;;;;;;5067934;28;20194;-88
2024/03/24 10:12:11;;;;;;;1.20;0.90;;;10.80;59.40;;;;;;5071137;28;20223;-89
2024/03/24 10:14:38;;;;;;;0.98;0.98;;;10.40;59.10;;;;;;5068874;28;20231;-87
2024/03/24 10:17:11;;;;;;;1.10;1.00;;;9.60;65.00;;;;;;5068541;28;20193;-89
2024/03/24 10:19:38;;;;;;;0.90;0.90;;;9.10;71.00;;;;;;5067450;28;20193;-94
2024/03/24 10:22:04;;;;;;;1.13;0.90;;;9.10;69.10;;;;;;5063594;28;20744;-86
2024/03/24 10:24:32;;;;;;;1.20;1.10;;;8.90;68.90;;;;;;5068795;28;20216;-85
2024/03/24 10:26:59;;;;;;;0.80;0.80;;;8.30;73.20;;;;;;5063947;28;20275;-88
2024/03/24 10:29:26;;;;;;;1.17;0.93;;;7.90;80.70;;;;;;5067591;28;20564;-84
2024/03/24 10:31:52;;;;;;;1.35;1.27;;;7.80;83.70;;;;;;5062273;28;20189;-85
2024/03/24 10:34:19;;;;;;;1.20;1.10;;;8.20;80.40;;;;;;5062505;28;20205;-86
2024/03/24 10:36:45;;;;;;;1.65;1.55;;;8.10;80.00;;;;;;5065452;28;20205;-88
2024/03/24 10:39:13;;;;;;;2.13;1.20;;;7.60;80.60;;;;;;5060943;28;20235;-85
2024/03/24 10:41:41;;;;;;;1.67;1.10;;;7.10;77.60;;;;;;5069082;28;20193;-87
2024/03/24 10:44:10;;;;;;;0.95;0.90;;;6.90;80.10;;;;;;5065896;28;20308;-88
2024/03/24 10:46:37;;;;;;;1.35;1.25;;;7.00;81.00;;;;;;5066504;28;20193;-89
2024/03/24 10:49:07;;;;;;;1.65;1.10;;;7.30;83.10;;;;;;5071937;28;20405;-88
2024/03/24 10:51:35;;;;;;;1.73;1.13;;;8.20;73.00;;;;;;5065141;28;20245;-86
2024/03/24 10:54:05;;;;;;;1.95;1.13;;;8.40;73.30;;;;;;5064884;28;20193;-87
2024/03/24 10:56:31;;;;;;;1.10;1.00;;;8.10;67.70;;;;;;5070956;28;20210;-86
2024/03/24 10:59:01;;;;;;;1.90;1.20;;;7.80;66.90;;;;;;5069091;28;20197;-90
2024/03/24 11:01:27;;;;;;;1.33;0.95;;;7.60;72.10;;;;;;5064844;28;20201;-88
2024/03/24 11:03:57;;;;;;;3.08;1.20;;;7.50;71.00;;;;;;5070794;28;20308;-88
2024/03/24 11:06:24;;;;;;;1.08;1.00;;;7.80;71.60;;;;;;5072335;28;20208;-88
2024/03/24 11:08:50;;;;;;;1.55;1.25;;;8.10;67.60;;;;;;5062707;28;20198;-84
2024/03/24 11:11:17;;;;;;;1.13;0.93;;;8.50;63.10;;;;;;5065415;28;20197;-89
2024/03/24 11:13:44;;;;;;;16.75;11.23;;;8.80;57.80;;;;;;5070729;28;20281;-89
2024/03/24 11:16:11;;;;;;;17.92;13.43;;;9.00;61.90;;;;;;5071841;28;20224;-86
2024/03/24 11:18:38;;;;;;;13.70;10.02;;;9.40;53.00;;;;;;5071153;28;20208;-88
2024/03/24 11:21:05;;;;;;;12.68;9.43;;;9.50;51.40;;;;;;5070132;28;20194;-89
2024/03/24 11:23:37;;;;;;;4.18;2.50;;;9.70;53.20;;;;;;5073373;28;20190;-85
2024/03/24 11:26:04;;;;;;;2.55;1.42;;;9.60;48.00;;;;;;5071839;28;20570;-87
2024/03/24 11:28:42;;;;;;;43.88;32.42;;;9.10;56.30;;;;;;5067827;28;20280;-85
2024/03/24 11:31:36;;;;;;;2.10;1.85;;;8.80;58.00;;;;;;5069586;28;20188;-85
2024/03/24 11:34:07;;;;;;;12.70;8.40;;;8.30;56.60;;;;;;5072810;28;20264;-85
2024/03/24 11:36:37;;;;;;;15.63;9.75;;;7.70;61.50;;;;;;5072988;28;20206;-86
2024/03/24 11:39:04;;;;;;;4.15;2.95;;;7.60;63.20;;;;;;5067893;28;20228;-87
2024/03/24 11:41:31;;;;;;;1.13;0.93;;;7.60;63.00;;;;;;5068074;28;20455;-83
2024/03/24 11:43:58;;;;;;;1.38;0.93;;;7.40;64.10;;;;;;5066100;28;20213;-84
2024/03/24 11:46:28;;;;;;;1.23;1.00;;;7.20;64.70;;;;;;5068562;28;20228;-85
2024/03/24 11:48:56;;;;;;;2.03;1.02;;;7.00;66.30;;;;;;5069557;28;20650;-83
2024/03/24 11:51:24;;;;;;;0.93;0.90;;;6.80;71.60;;;;;;5067623;28;20300;-85
2024/03/24 11:53:51;;;;;;;1.23;0.90;;;6.60;74.90;;;;;;5071925;28;20205;-87
2024/03/24 11:56:19;;;;;;;0.80;0.80;;;6.50;76.90;;;;;;5072503;28;20283;-84
2024/03/24 11:58:49;;;;;;;0.70;0.70;;;6.40;80.70;;;;;;5072518;28;20206;-85
2024/03/24 12:01:18;;;;;;;1.37;0.90;;;6.40;79.50;;;;;;5070103;28;20682;-85
2024/03/24 12:03:43;;;;;;;1.50;0.90;;;6.50;80.10;;;;;;5076843;28;20647;-86
2024/03/24 12:06:13;;;;;;;1.23;1.13;;;6.70;79.80;;;;;;5070107;28;20228;-84
2024/03/24 12:08:40;;;;;;;1.40;1.00;;;6.80;79.20;;;;;;5070281;28;20196;-83
2024/03/24 12:11:07;;;;;;;1.52;0.90;;;6.90;79.40;;;;;;5068573;28;20920;-84
2024/03/24 12:13:32;;;;;;;0.95;0.80;;;6.90;78.00;;;;;;5069517;28;20220;-84
2024/03/24 12:15:59;;;;;;;1.35;0.93;;;6.90;75.60;;;;;;5070005;28;20650;-87
2024/03/24 12:18:25;;;;;;;1.17;0.80;;;6.80;78.20;;;;;;5063729;28;20209;-84
2024/03/24 12:20:53;;;;;;;1.67;1.00;;;6.70;75.60;;;;;;5067399;28;20694;-82
2024/03/24 12:23:25;;;;;;;2.20;1.20;;;6.40;80.00;;;;;;5068511;28;20227;-84
2024/03/24 12:25:53;;;;;;;1.17;1.07;;;6.40;82.10;;;;;;5071021;28;20214;-84
2024/03/24 12:28:19;;;;;;;2.13;1.00;;;6.40;82.90;;;;;;5073822;28;20198;-82
2024/03/24 12:30:48;;;;;;;1.03;0.93;;;6.40;85.40;;;;;;5071969;28;20201;-86
2024/03/24 12:33:18;;;;;;;1.10;1.00;;;6.30;89.80;;;;;;5052474;28;20851;-86
2024/03/24 12:35:44;;;;;;;2.47;0.93;;;6.50;91.00;;;;;;5072325;28;20201;-86
2024/03/24 12:38:12;;;;;;;1.20;1.10;;;6.60;90.90;;;;;;5066601;28;20197;-85
2024/03/24 12:40:49;;;;;;;1.35;1.10;;;6.80;86.60;;;;;;5067914;28;20198;-84
2024/03/24 12:43:15;;;;;;;1.35;1.10;;;7.10;84.00;;;;;;5068758;28;20220;-86
2024/03/24 12:45:49;;;;;;;1.63;0.90;;;7.00;81.80;;;;;;5053991;28;20217;-87
2024/03/24 12:48:17;;;;;;;2.38;0.90;;;7.00;84.20;;;;;;5066981;28;20292;-86
2024/03/24 12:50:43;;;;;;;1.60;0.90;;;7.00;82.80;;;;;;5049252;28;20193;-85
2024/03/24 12:53:17;;;;;;;0.90;0.83;;;6.80;86.30;;;;;;5070544;28;20566;-87
2024/03/24 12:55:53;;;;;;;1.45;1.20;;;6.60;84.70;;;;;;5064904;28;20258;-84